createdAt,value
2019-01-29T00:04:52.548Z,10.43
2019-01-29T00:09:58.931Z,11.67
2019-01-29T00:15:06.646Z,13.60
2019-01-29T00:20:13.028Z,14.20
2019-01-29T00:25:19.305Z,15.93
2019-01-29T00:30:25.595Z,13.97
2019-01-29T00:35:31.903Z,16.33
2019-01-29T00:45:49.626Z,10.67
2019-01-29T00:50:55.868Z,13.22
2019-01-29T00:56:02.137Z,9.83
2019-01-29T01:01:08.485Z,10.25
2019-01-29T01:06:14.792Z,14.93
2019-01-29T01:11:20.977Z,8.37
2019-01-29T01:16:27.201Z,9.53
2019-01-29T01:21:33.490Z,9.15
2019-01-29T01:26:39.908Z,12.60
2019-01-29T01:31:46.282Z,11.07
2019-01-29T01:36:52.602Z,10.50
2019-01-29T01:41:58.948Z,12.90
2019-01-29T01:47:05.650Z,9.33
2019-01-29T01:52:11.960Z,7.72
2019-01-29T01:57:18.164Z,8.87
2019-01-29T02:02:24.403Z,10.57
2019-01-29T02:07:30.746Z,9.43
2019-01-29T02:12:37.017Z,9.23
2019-01-29T02:17:43.478Z,7.50
2019-01-29T02:22:49.913Z,13.55
2019-01-29T02:27:56.297Z,11.53
2019-01-29T02:33:02.638Z,11.35
2019-01-29T02:38:08.871Z,10.07
2019-01-29T02:43:15.160Z,9.27
2019-01-29T02:48:21.405Z,10.70
2019-01-29T02:53:27.734Z,10.80
2019-01-29T02:58:33.992Z,10.07
2019-01-29T03:03:40.315Z,11.90
2019-01-29T03:08:46.636Z,12.93
2019-01-29T03:13:52.856Z,12.17
2019-01-29T03:18:59.040Z,9.93
2019-01-29T03:24:05.595Z,12.73
2019-01-29T03:29:11.874Z,13.03
2019-01-29T03:34:18.177Z,15.00
2019-01-29T03:39:24.405Z,17.70
2019-01-29T03:44:30.654Z,15.48
2019-01-29T03:49:36.937Z,13.57
2019-01-29T03:54:43.253Z,15.20
2019-01-29T03:59:49.497Z,13.97
2019-01-29T04:04:55.775Z,17.17
2019-01-29T04:10:02.087Z,15.57
2019-01-29T04:15:10.844Z,16.43
2019-01-29T04:20:19.038Z,15.77
2019-01-29T04:25:25.329Z,21.30
2019-01-29T04:30:31.536Z,18.87
2019-01-29T04:35:37.791Z,23.32
2019-01-29T04:40:44.025Z,19.50
2019-01-29T04:45:50.360Z,26.47
2019-01-29T04:50:56.712Z,21.33
2019-01-29T04:56:03.116Z,24.67
2019-01-29T05:01:24.594Z,25.70
2019-01-29T05:06:30.871Z,30.30
2019-01-29T05:11:37.100Z,32.73
2019-01-29T05:16:43.407Z,32.30
2019-01-29T05:21:49.699Z,41.50
2019-01-29T05:26:55.892Z,38.73
2019-01-29T05:32:02.141Z,40.50
2019-01-29T05:37:08.466Z,44.00
2019-01-29T05:42:14.865Z,41.10
2019-01-29T05:47:21.127Z,40.70
2019-01-29T05:52:27.448Z,42.33
2019-01-29T05:57:33.784Z,43.10
2019-01-29T06:02:40.047Z,40.77
2019-01-29T06:07:46.261Z,42.60
2019-01-29T06:12:52.528Z,43.45
2019-01-29T06:17:58.915Z,39.73
2019-01-29T06:23:05.607Z,32.80
2019-01-29T06:28:11.928Z,41.50
2019-01-29T06:33:18.250Z,39.43
2019-01-29T06:38:24.747Z,38.10
2019-01-29T06:43:31.082Z,38.57
2019-01-29T06:48:37.401Z,37.70
2019-01-29T06:53:43.755Z,39.18
2019-01-29T06:58:50.099Z,37.77
2019-01-29T07:03:56.443Z,42.65
2019-01-29T07:09:02.882Z,36.08
2019-01-29T07:14:09.193Z,40.30
2019-01-29T07:19:19.705Z,38.70
2019-01-29T07:24:25.951Z,39.93
2019-01-29T07:29:32.317Z,39.07
2019-01-29T07:34:38.571Z,44.03
2019-01-29T07:39:44.828Z,38.93
2019-01-29T07:44:51.070Z,33.83
2019-01-29T07:49:57.414Z,34.53
2019-01-29T07:55:03.808Z,34.18
2019-01-29T08:00:11.073Z,33.27
2019-01-29T08:05:17.446Z,36.03
2019-01-29T08:10:24.708Z,38.60
2019-01-29T08:15:31.218Z,36.20
2019-01-29T08:20:37.481Z,32.70
2019-01-29T08:25:47.934Z,35.20
2019-01-29T08:30:51.654Z,32.17
2019-01-29T08:35:57.885Z,32.13
2019-01-29T08:41:04.533Z,33.93
2019-01-29T08:46:11.265Z,33.35
2019-01-29T08:51:17.547Z,32.80
2019-01-29T08:56:23.781Z,27.35
2019-01-29T09:01:30.063Z,26.70
2019-01-29T09:06:36.296Z,28.90
2019-01-29T09:11:42.502Z,24.85
2019-01-29T09:16:48.816Z,23.87
2019-01-29T09:21:55.070Z,24.90
2019-01-29T09:27:01.308Z,27.32
2019-01-29T09:32:07.686Z,27.30
2019-01-29T09:37:22.620Z,28.37
2019-01-29T09:42:28.903Z,21.90
2019-01-29T09:47:36.799Z,20.17
2019-01-29T09:52:43.171Z,19.07
2019-01-29T09:58:02.584Z,15.73
2019-01-29T10:03:09.127Z,17.27
2019-01-29T10:08:15.465Z,14.77
2019-01-29T10:13:21.818Z,16.87
2019-01-29T10:18:28.075Z,17.37
2019-01-29T10:23:34.360Z,12.88
2019-01-29T10:28:40.650Z,14.07
2019-01-29T10:33:47.090Z,17.50
2019-01-29T10:38:53.345Z,12.23
2019-01-29T10:43:59.593Z,13.30
2019-01-29T10:49:06.268Z,12.23
2019-01-29T10:54:14.176Z,12.33
2019-01-29T10:59:21.731Z,12.03
2019-01-29T11:04:28.031Z,10.60
2019-01-29T11:09:34.346Z,10.72
2019-01-29T11:14:40.693Z,10.03
2019-01-29T11:19:47.100Z,10.90
2019-01-29T11:24:53.455Z,10.63
2019-01-29T11:29:59.765Z,10.93
2019-01-29T11:35:06.640Z,10.97
2019-01-29T11:40:16.958Z,11.83
2019-01-29T11:45:31.586Z,13.07
2019-01-29T11:50:37.823Z,11.90
2019-01-29T11:55:44.176Z,12.27
2019-01-29T12:00:55.143Z,13.60
2019-01-29T12:06:01.434Z,12.90
2019-01-29T12:11:08.151Z,14.47
2019-01-29T12:16:14.539Z,11.28
2019-01-29T12:21:20.852Z,13.63
2019-01-29T12:26:27.123Z,15.97
2019-01-29T12:31:33.503Z,11.63
2019-01-29T12:36:39.771Z,14.30
2019-01-29T12:41:46.040Z,10.47
2019-01-29T12:46:52.291Z,10.50
2019-01-29T12:52:06.881Z,7.92
2019-01-29T12:57:13.132Z,10.00
2019-01-29T13:02:19.439Z,5.43
2019-01-29T13:07:25.848Z,9.20
2019-01-29T13:12:33.092Z,4.80
2019-01-29T13:17:39.412Z,9.23
2019-01-29T13:22:45.731Z,5.67
2019-01-29T13:27:52.060Z,7.97
2019-01-29T13:32:58.348Z,10.00
2019-01-29T13:38:06.165Z,5.37
2019-01-29T13:43:12.462Z,9.40
2019-01-29T13:48:18.929Z,8.77
2019-01-29T13:53:25.202Z,8.67
2019-01-29T13:58:31.455Z,5.50
2019-01-29T14:03:37.712Z,9.13
2019-01-29T14:08:43.943Z,7.50
2019-01-29T14:13:50.299Z,6.63
2019-01-29T14:18:56.513Z,6.40
2019-01-29T14:24:02.799Z,7.12
2019-01-29T14:29:09.128Z,6.43
2019-01-29T14:34:15.377Z,6.83
2019-01-29T14:40:02.885Z,8.33
2019-01-29T14:45:17.452Z,7.53
2019-01-29T14:50:24.573Z,10.33
2019-01-29T14:55:30.810Z,8.70
2019-01-29T15:00:37.660Z,8.90
2019-01-29T15:05:43.896Z,7.17
2019-01-29T15:10:50.264Z,5.83
2019-01-29T15:16:01.377Z,6.20
2019-01-29T15:21:07.567Z,7.25
2019-01-29T15:26:13.803Z,10.48
2019-01-29T15:31:20.015Z,7.23
2019-01-29T15:36:26.416Z,6.17
2019-01-29T15:41:33.733Z,12.00
2019-01-29T15:46:40.036Z,11.50
2019-01-29T15:51:46.354Z,8.73
2019-01-29T15:56:52.986Z,10.90
2019-01-29T16:01:59.330Z,8.05
2019-01-29T16:07:05.806Z,8.58
2019-01-29T16:12:12.115Z,9.87
2019-01-29T16:17:18.439Z,6.63
2019-01-29T16:22:24.762Z,9.33
2019-01-29T16:27:31.033Z,7.23
2019-01-29T16:32:37.416Z,11.33
2019-01-29T16:37:43.739Z,7.95
2019-01-29T16:42:50.057Z,6.87
2019-01-29T16:47:56.574Z,6.55
2019-01-29T16:53:02.817Z,8.68
2019-01-29T16:58:09.305Z,9.20
2019-01-29T17:03:15.559Z,8.17
2019-01-29T17:08:21.944Z,8.08
2019-01-29T17:13:28.512Z,11.17
2019-01-29T17:18:34.788Z,11.90
2019-01-29T17:23:41.092Z,7.63
2019-01-29T17:28:47.339Z,12.78
2019-01-29T17:33:53.890Z,12.73
2019-01-29T17:39:00.215Z,6.93
2019-01-29T17:44:06.691Z,12.23
2019-01-29T17:49:13.013Z,9.07
2019-01-29T17:54:19.337Z,13.78
2019-01-29T17:59:25.713Z,13.95
2019-01-29T18:04:32.057Z,15.13
2019-01-29T18:09:38.297Z,10.70
2019-01-29T18:14:44.639Z,8.60
2019-01-29T18:19:50.821Z,10.70
2019-01-29T18:24:57.132Z,7.20
2019-01-29T18:30:03.405Z,9.57
2019-01-29T18:35:10.022Z,10.57
2019-01-29T18:40:18.888Z,9.40
2019-01-29T18:45:25.220Z,11.63
2019-01-29T18:50:31.580Z,11.17
2019-01-29T18:55:37.925Z,7.30
2019-01-29T19:00:54.028Z,8.73
2019-01-29T19:05:52.186Z,12.87
2019-01-29T19:10:58.481Z,10.47
2019-01-29T19:16:04.783Z,12.50
2019-01-29T19:21:11.015Z,17.43
2019-01-29T19:26:17.266Z,14.60
2019-01-29T19:31:23.491Z,11.13
2019-01-29T19:36:30.784Z,11.47
2019-01-29T19:41:37.018Z,10.93
2019-01-29T19:46:43.424Z,10.43
2019-01-29T19:51:49.687Z,15.15
2019-01-29T19:56:56.053Z,13.97
2019-01-29T20:02:02.344Z,11.37
2019-01-29T20:07:08.663Z,11.88
2019-01-29T20:12:15.151Z,10.47
2019-01-29T20:17:21.516Z,10.33
2019-01-29T20:22:27.803Z,11.97
2019-01-29T20:27:35.107Z,13.20
2019-01-29T20:32:41.442Z,13.17
2019-01-29T20:37:47.840Z,12.20
2019-01-29T20:42:54.195Z,11.10
2019-01-29T20:48:00.522Z,9.47
2019-01-29T20:53:06.807Z,8.00
2019-01-29T20:58:13.167Z,10.97
2019-01-29T21:03:19.528Z,10.25
2019-01-29T21:08:25.936Z,12.10
2019-01-29T21:13:32.282Z,7.80
2019-01-29T21:18:38.625Z,11.70
2019-01-29T21:23:45.021Z,10.23
2019-01-29T21:28:51.355Z,10.17
2019-01-29T21:33:57.685Z,13.83
2019-01-29T21:39:08.976Z,7.37
2019-01-29T21:44:15.312Z,9.50
2019-01-29T21:49:21.659Z,16.82
2019-01-29T21:54:28.010Z,11.73
2019-01-29T21:59:34.386Z,12.13
2019-01-29T22:04:40.615Z,14.23
2019-01-29T22:09:47.042Z,15.93
2019-01-29T22:14:53.371Z,13.07
2019-01-29T22:19:59.774Z,18.60
2019-01-29T22:25:07.984Z,11.10
2019-01-29T22:30:28.533Z,14.50
2019-01-29T22:35:34.779Z,14.85
2019-01-29T22:40:41.026Z,13.80
2019-01-29T22:45:47.332Z,17.48
2019-01-29T22:50:53.641Z,15.75
2019-01-29T22:55:59.955Z,13.00
2019-01-29T23:01:30.794Z,14.53
2019-01-29T23:06:52.148Z,13.10
2019-01-29T23:11:58.483Z,16.17
2019-01-29T23:17:05.650Z,9.83
2019-01-29T23:22:11.885Z,13.30
2019-01-29T23:27:18.150Z,14.07
2019-01-29T23:32:24.381Z,10.93
2019-01-29T23:37:30.958Z,9.43
2019-01-29T23:42:37.185Z,13.03
2019-01-29T23:47:43.458Z,11.50
2019-01-29T23:52:49.737Z,12.03
2019-01-29T23:57:56.360Z,11.47
